Time;durP1;ratioP1;P1;durP2;ratioP2;P2;SDS_P1;SDS_P2;PMS_P1;PMS_P2;Temp;Humidity;BMP_temperature;BMP_pressure;BME280_temperature;BME280_humidity;BME280_pressure;Samples;Min_cycle;Max_cycle;Signal;HPM_P1;HPM_P2
2023/07/03 00:00:27;;;;;;;18.00;8.48;;;;;;;21.40;100.00;98388.69;4981306;28;20039;-94
2023/07/03 00:02:53;;;;;;;23.10;9.05;;;;;;;21.32;100.00;98377.63;4968990;28;20051;-93
2023/07/03 00:05:20;;;;;;;25.10;9.32;;;;;;;21.42;100.00;98404.81;4970222;28;20114;-93
2023/07/03 00:07:46;;;;;;;19.10;8.73;;;;;;;21.27;100.00;98377.09;4972732;28;20048;-94
2023/07/03 00:10:13;;;;;;;26.05;8.30;;;;;;;21.14;100.00;98377.16;4970133;28;20075;-94
2023/07/03 00:12:41;;;;;;;19.38;8.43;;;;;;;21.13;100.00;98365.50;4982583;28;20066;-94
2023/07/03 00:15:08;;;;;;;23.38;8.40;;;;;;;21.12;100.00;98371.91;4965649;28;20043;-93
2023/07/03 00:17:37;;;;;;;20.20;7.72;;;;;;;21.15;100.00;98378.06;4959579;28;20130;-94
2023/07/03 00:20:04;;;;;;;23.10;7.93;;;;;;;21.20;100.00;98395.63;4972035;28;20067;-93
2023/07/03 00:22:30;;;;;;;19.33;8.23;;;;;;;21.12;100.00;98384.53;4968836;28;20047;-94
2023/07/03 00:24:56;;;;;;;26.40;9.05;;;;;;;21.04;100.00;98368.06;4963694;28;20503;-92
2023/07/03 00:27:22;;;;;;;24.20;8.85;;;;;;;21.01;100.00;98369.13;4969882;28;20042;-93
2023/07/03 00:29:48;;;;;;;23.30;8.75;;;;;;;21.02;100.00;98367.31;4982415;28;20043;-94
2023/07/03 00:32:14;;;;;;;21.38;7.97;;;;;;;21.04;100.00;98374.31;4973712;28;20043;-94
2023/07/03 00:34:41;;;;;;;27.60;9.15;;;;;;;21.04;100.00;98378.88;4970572;28;20134;-93
2023/07/03 00:37:07;;;;;;;27.17;8.90;;;;;;;21.06;100.00;98382.31;4980404;28;20058;-95
2023/07/03 00:39:36;;;;;;;28.48;8.57;;;;;;;21.01;100.00;98379.94;4975670;28;20470;-94
2023/07/03 00:42:02;;;;;;;29.60;9.55;;;;;;;21.02;100.00;98388.94;4969988;28;20046;-93
2023/07/03 00:44:29;;;;;;;24.02;8.88;;;;;;;20.93;100.00;98380.53;4962141;29;20058;-95
2023/07/03 00:46:55;;;;;;;24.13;9.00;;;;;;;20.93;100.00;98375.13;4974834;28;20038;-93
2023/07/03 00:49:21;;;;;;;30.02;10.18;;;;;;;20.97;100.00;98381.19;4969138;28;20405;-93
2023/07/03 00:51:52;;;;;;;24.25;9.90;;;;;;;20.99;100.00;98394.56;4965998;28;20497;-94
2023/07/03 00:54:18;;;;;;;28.25;9.57;;;;;;;20.88;100.00;98369.22;4982109;28;20047;-94
2023/07/03 00:56:44;;;;;;;28.95;9.15;;;;;;;20.99;100.00;98390.03;4966880;28;20054;-93
2023/07/03 00:59:11;;;;;;;24.52;9.50;;;;;;;20.84;100.00;98365.03;4962893;29;20043;-93
2023/07/03 01:01:43;;;;;;;25.63;9.48;;;;;;;20.96;100.00;98394.81;4979891;28;20059;-94
2023/07/03 01:04:13;;;;;;;22.92;8.85;;;;;;;20.87;100.00;98374.75;4984207;28;20047;-93
2023/07/03 01:06:44;;;;;;;29.52;9.98;;;;;;;20.99;100.00;98405.38;4982186;28;20043;-94
2023/07/03 01:09:14;;;;;;;28.50;9.30;;;;;;;20.95;100.00;98390.34;4986841;28;20093;-94
2023/07/03 01:11:42;;;;;;;27.17;10.10;;;;;;;20.95;100.00;98391.25;4966342;28;20055;-94
2023/07/03 01:14:11;;;;;;;24.92;9.23;;;;;;;20.90;100.00;98385.31;4968941;28;20074;-93
2023/07/03 01:16:37;;;;;;;24.13;9.57;;;;;;;20.94;100.00;98381.41;4988167;28;20098;-93
2023/07/03 01:19:08;;;;;;;31.05;10.68;;;;;;;20.84;100.00;98393.88;4976417;28;20039;-93
2023/07/03 01:21:40;;;;;;;30.10;10.13;;;;;;;20.89;100.00;98394.41;4982515;28;20078;-93
2023/07/03 01:24:13;;;;;;;27.13;9.45;;;;;;;20.79;100.00;98383.41;4968626;28;20101;-93
2023/07/03 01:26:43;;;;;;;31.58;10.32;;;;;;;20.76;100.00;98380.94;4976073;28;20051;-93
2023/07/03 01:29:13;;;;;;;29.38;10.07;;;;;;;20.87;100.00;98408.03;4982101;28;20046;-93
2023/07/03 01:31:41;;;;;;;29.75;10.93;;;;;;;20.91;100.00;98414.06;4971206;28;20054;-93
2023/07/03 01:34:08;;;;;;;33.65;10.63;;;;;;;20.92;100.00;98410.38;4975251;28;20404;-91
2023/07/03 01:36:36;;;;;;;33.42;9.82;;;;;;;20.85;100.00;98401.03;4969830;28;20046;-93
2023/07/03 01:39:02;;;;;;;29.95;11.32;;;;;;;20.83;100.00;98408.38;4976617;28;20387;-93
2023/07/03 01:41:30;;;;;;;29.85;9.95;;;;;;;20.81;100.00;98404.94;4972389;28;20135;-93
2023/07/03 01:43:59;;;;;;;33.45;10.65;;;;;;;20.66;100.00;98382.59;4969009;28;20046;-93
2023/07/03 01:46:25;;;;;;;30.48;12.07;;;;;;;20.65;100.00;98389.00;4986667;28;20449;-94
2023/07/03 01:48:51;;;;;;;29.15;11.02;;;;;;;20.71;100.00;98404.75;4978134;28;20146;-92
2023/07/03 01:51:24;;;;;;;37.22;12.93;;;;;;;20.84;100.00;98423.59;4984193;28;20043;-93
2023/07/03 01:54:01;;;;;;;28.13;10.52;;;;;;;20.78;100.00;98413.28;4971654;28;20393;-94
2023/07/03 01:56:32;;;;;;;33.70;11.68;;;;;;;20.75;100.00;98402.69;4970555;28;20039;-92
2023/07/03 01:59:05;;;;;;;40.95;11.93;;;;;;;20.80;100.00;98416.72;4968739;28;20050;-93
2023/07/03 02:01:41;;;;;;;33.15;12.15;;;;;;;20.82;100.00;98420.16;4970005;28;20625;-93
2023/07/03 02:04:14;;;;;;;32.35;10.82;;;;;;;20.65;100.00;98395.25;4974472;28;20516;-93
2023/07/03 02:06:43;;;;;;;29.45;12.40;;;;;;;20.59;100.00;98397.56;4977998;28;20039;-94
2023/07/03 02:09:10;;;;;;;36.92;12.80;;;;;;;20.59;100.00;98403.81;4977921;28;20039;-93
2023/07/03 02:11:36;;;;;;;36.40;12.02;;;;;;;20.54;100.00;98408.69;4976829;28;20050;-93
2023/07/03 02:14:06;;;;;;;34.88;11.15;;;;;;;20.44;100.00;98402.22;4971996;28;20032;-92
2023/07/03 02:16:32;;;;;;;32.38;11.70;;;;;;;20.37;100.00;98398.25;4979571;28;20386;-93
2023/07/03 02:18:58;;;;;;;38.38;12.32;;;;;;;20.39;100.00;98415.22;4973575;28;20074;-93
2023/07/03 02:21:25;;;;;;;40.95;12.48;;;;;;;20.31;100.00;98410.34;4975859;28;20054;-93
2023/07/03 02:23:51;;;;;;;36.55;13.23;;;;;;;20.44;100.00;98438.19;4970946;28;20106;-93
2023/07/03 02:26:17;;;;;;;47.78;13.77;;;;;;;20.26;100.00;98418.78;4973115;28;20039;-93
2023/07/03 02:28:43;;;;;;;45.75;13.63;;;;;;;20.17;100.00;98405.97;4969521;28;20069;-93
2023/07/03 02:31:10;;;;;;;45.00;15.43;;;;;;;20.11;100.00;98407.25;4974215;28;20070;-93
2023/07/03 02:33:36;;;;;;;45.85;14.45;;;;;;;20.18;100.00;98421.16;4971728;28;20508;-95
2023/07/03 02:36:03;;;;;;;42.33;14.40;;;;;;;20.08;100.00;98402.09;4971432;28;20048;-94
2023/07/03 02:38:29;;;;;;;51.28;14.88;;;;;;;20.02;100.00;98396.28;4968014;28;20054;-92
2023/07/03 02:41:02;;;;;;;40.22;13.15;;;;;;;20.04;100.00;98405.13;4966748;28;20047;-92
2023/07/03 02:43:27;;;;;;;47.15;14.48;;;;;;;20.03;100.00;98400.69;4974096;28;20043;-93
2023/07/03 02:45:53;;;;;;;38.75;14.65;;;;;;;19.98;100.00;98402.84;4991869;28;20053;-94
2023/07/03 02:48:21;;;;;;;47.35;15.20;;;;;;;19.97;100.00;98395.72;4970202;28;20047;-93
2023/07/03 02:50:51;;;;;;;49.83;14.35;;;;;;;20.05;100.00;98421.19;4977107;28;20098;-93
2023/07/03 02:53:17;;;;;;;55.83;15.88;;;;;;;20.08;100.00;98434.47;4964756;28;20035;-94
2023/07/03 02:55:43;;;;;;;46.30;15.18;;;;;;;19.96;100.00;98412.91;4971899;28;20047;-92
2023/07/03 02:58:09;;;;;;;43.83;14.23;;;;;;;20.05;100.00;98428.44;4974076;28;20050;-92
2023/07/03 03:00:35;;;;;;;46.45;14.13;;;;;;;20.04;100.00;98432.97;4967343;28;20484;-93
2023/07/03 03:03:01;;;;;;;46.10;15.05;;;;;;;19.93;100.00;98415.78;4978441;28;20070;-91
2023/07/03 03:05:29;;;;;;;47.80;16.17;;;;;;;20.06;100.00;98435.53;4970385;28;20046;-92
2023/07/03 03:07:55;;;;;;;54.35;15.57;;;;;;;19.94;100.00;98423.78;4975839;28;20466;-93
2023/07/03 03:10:21;;;;;;;45.97;15.00;;;;;;;20.04;100.00;98440.22;4978353;28;20456;-91
2023/07/03 03:12:46;;;;;;;42.33;14.43;;;;;;;20.03;100.00;98420.44;4974740;28;20047;-93
2023/07/03 03:15:12;;;;;;;42.75;14.38;;;;;;;20.18;100.00;98445.47;4969690;28;20047;-94
2023/07/03 03:17:39;;;;;;;40.70;13.85;;;;;;;20.10;100.00;98431.66;4972889;28;20038;-94
2023/07/03 03:20:06;;;;;;;45.42;14.02;;;;;;;20.24;100.00;98436.94;4989443;28;20476;-94
2023/07/03 03:22:33;;;;;;;44.85;15.13;;;;;;;20.21;100.00;98431.78;4978589;28;20039;-95
2023/07/03 03:25:00;;;;;;;38.65;13.95;;;;;;;20.10;100.00;98431.66;4965536;28;20081;-92
2023/07/03 03:27:26;;;;;;;47.03;13.57;;;;;;;20.06;100.00;98422.03;4972068;28;20043;-92
2023/07/03 03:29:52;;;;;;;41.60;13.43;;;;;;;20.07;100.00;98431.88;4990398;28;20501;-93
2023/07/03 03:32:18;;;;;;;41.80;14.93;;;;;;;20.00;100.00;98433.31;4987168;28;20045;-93
2023/07/03 03:34:44;;;;;;;45.80;14.68;;;;;;;19.94;100.00;98431.88;4971089;28;20074;-93
2023/07/03 03:37:10;;;;;;;44.35;14.35;;;;;;;20.04;100.00;98453.72;4981326;28;20134;-92
2023/07/03 03:39:38;;;;;;;41.70;14.82;;;;;;;19.98;100.00;98446.91;4961775;28;20186;-94
2023/07/03 03:42:04;;;;;;;38.92;14.98;;;;;;;20.00;100.00;98452.19;4967555;28;20138;-93
2023/07/03 03:44:30;;;;;;;44.42;13.80;;;;;;;19.86;100.00;98431.56;4981568;28;20041;-93
2023/07/03 03:46:56;;;;;;;34.78;13.52;;;;;;;19.88;100.00;98435.00;5000458;28;20114;-93
2023/07/03 03:49:22;;;;;;;40.53;13.98;;;;;;;19.90;100.00;98433.94;4980981;28;20039;-92
2023/07/03 03:51:48;;;;;;;43.97;14.30;;;;;;;19.98;100.00;98444.19;4972349;28;20113;-94
2023/07/03 03:54:14;;;;;;;43.45;14.00;;;;;;;19.96;100.00;98435.34;4969429;28;20110;-93
2023/07/03 03:56:42;;;;;;;41.42;13.93;;;;;;;20.08;100.00;98452.50;4968540;28;20386;-93
2023/07/03 03:59:08;;;;;;;44.90;14.88;;;;;;;20.17;100.00;98468.06;4966655;28;20047;-94
2023/07/03 04:01:37;;;;;;;40.20;14.80;;;;;;;20.04;100.00;98441.06;4965796;28;20047;-94
2023/07/03 04:04:03;;;;;;;;;;;;;;;20.26;100.00;98462.00;4977447;28;20070;-95
2023/07/03 04:06:29;;;;;;;50.95;15.80;;;;;;;20.22;100.00;98446.13;4988156;28;19919;-94
2023/07/03 04:08:58;;;;;;;40.03;14.02;;;;;;;20.21;100.00;98431.78;4980347;28;20114;-93
2023/07/03 04:11:24;;;;;;;38.15;14.48;;;;;;;20.34;100.00;98439.81;4977339;28;20039;-95
2023/07/03 04:13:52;;;;;;;37.45;13.23;;;;;;;20.29;100.00;98428.50;4965766;28;20043;-92
2023/07/03 04:16:18;;;;;;;41.90;13.85;;;;;;;20.36;100.00;98423.50;4975453;28;20126;-96
2023/07/03 04:18:44;;;;;;;41.17;14.73;;;;;;;20.40;100.00;98433.13;4982223;28;20070;-93
2023/07/03 04:21:10;;;;;;;41.05;14.07;;;;;;;20.41;100.00;98441.13;4972657;28;20054;-94
2023/07/03 04:23:36;;;;;;;40.45;15.93;;;;;;;20.35;100.00;98428.06;4976152;28;20039;-94
2023/07/03 04:26:02;;;;;;;40.67;13.18;;;;;;;20.61;100.00;98452.34;4972685;28;20115;-93
2023/07/03 04:28:29;;;;;;;35.42;14.10;;;;;;;20.76;100.00;98467.41;4965905;28;20062;-93
2023/07/03 04:30:56;;;;;;;42.28;13.38;;;;;;;20.67;100.00;98422.19;4965003;28;20055;-95
2023/07/03 04:33:22;;;;;;;33.83;13.05;;;;;;;20.87;100.00;98445.00;4960840;28;20489;-93
2023/07/03 04:35:48;;;;;;;44.47;14.93;;;;;;;20.71;100.00;98435.34;4971939;28;20051;-93
2023/07/03 04:38:23;;;;;;;39.33;13.30;;;;;;;20.85;100.00;98434.31;4982012;28;20050;-94
2023/07/03 04:40:49;;;;;;;37.58;13.65;;;;;;;20.91;100.00;98433.84;4976033;28;20047;-95
2023/07/03 04:43:16;;;;;;;36.90;13.65;;;;;;;21.05;100.00;98454.44;4970268;28;20067;-94
2023/07/03 04:45:45;;;;;;;45.63;15.10;;;;;;;21.17;100.00;98455.38;4972481;28;20494;-95
2023/07/03 04:48:12;;;;;;;38.67;12.93;;;;;;;21.19;100.00;98444.41;4977457;28;20043;-94
2023/07/03 04:50:38;;;;;;;40.00;14.85;;;;;;;21.24;100.00;98442.25;4985925;28;20051;-95
2023/07/03 04:53:04;;;;;;;33.42;13.40;;;;;;;21.14;100.00;98447.47;4971871;28;20035;-94
2023/07/03 04:55:32;;;;;;;35.40;13.52;;;;;;;21.08;100.00;98439.84;4972296;28;20047;-93
2023/07/03 04:57:59;;;;;;;35.22;13.13;;;;;;;21.17;100.00;98446.41;4983880;28;20050;-93
2023/07/03 05:00:27;;;;;;;38.90;13.00;;;;;;;21.25;100.00;98438.53;4987031;28;20186;-94
2023/07/03 05:02:57;;;;;;;35.28;13.68;;;;;;;21.31;100.00;98455.16;4970375;28;20047;-95
2023/07/03 05:05:25;;;;;;;40.45;14.85;;;;;;;20.93;100.00;98434.59;4975283;28;20050;-94
2023/07/03 05:07:51;;;;;;;33.38;13.38;;;;;;;21.08;100.00;98442.53;4970875;28;20505;-93
2023/07/03 05:10:19;;;;;;;46.13;14.45;;;;;;;21.09;100.00;98437.00;4971747;28;20446;-96
2023/07/03 05:12:45;;;;;;;39.35;15.35;;;;;;;21.12;100.00;98439.50;4962920;29;20414;-95
2023/07/03 05:15:13;;;;;;;44.60;13.38;;;;;;;21.43;100.00;98466.09;4975363;28;20147;-95
2023/07/03 05:17:39;;;;;;;38.47;13.52;;;;;;;21.60;100.00;98435.00;4971334;28;20043;-94
2023/07/03 05:20:08;;;;;;;36.63;12.95;;;;;;;22.00;100.00;98446.28;4976427;28;20051;-94
2023/07/03 05:22:37;;;;;;;36.45;13.02;;;;;;;22.81;100.00;98446.13;4972107;28;20047;-94
2023/07/03 05:25:03;;;;;;;30.83;13.45;;;;;;;22.93;100.00;98440.56;4970301;28;20049;-94
2023/07/03 05:27:32;;;;;;;33.90;13.25;;;;;;;23.25;100.00;98460.56;4967021;28;20039;-95
2023/07/03 05:29:58;;;;;;;31.00;12.98;;;;;;;23.56;100.00;98465.13;4982630;28;20050;-94
2023/07/03 05:32:24;;;;;;;38.50;13.45;;;;;;;23.77;100.00;98439.88;4978050;28;20034;-93
2023/07/03 05:34:51;;;;;;;36.35;12.98;;;;;;;24.01;100.00;98452.28;4963825;28;20050;-94
2023/07/03 05:37:18;;;;;;;30.45;13.73;;;;;;;24.10;100.00;98430.63;4972522;28;20042;-94
2023/07/03 05:39:48;;;;;;;35.33;13.85;;;;;;;24.25;100.00;98458.31;4979869;28;20043;-92
2023/07/03 05:42:16;;;;;;;33.05;11.80;;;;;;;24.19;100.00;98451.53;4966200;28;20067;-93
2023/07/03 05:44:44;;;;;;;40.67;13.10;;;;;;;24.48;100.00;98461.72;4974919;28;20043;-95
2023/07/03 05:47:11;;;;;;;41.90;13.75;;;;;;;24.28;100.00;98444.44;4991462;28;20460;-94
2023/07/03 05:49:37;;;;;;;39.33;13.32;;;;;;;23.95;100.00;98454.56;4971062;28;20386;-94
2023/07/03 05:52:03;;;;;;;33.03;11.65;;;;;;;23.94;100.00;98476.41;4983851;28;20042;-94
2023/07/03 05:54:30;;;;;;;28.48;11.90;;;;;;;24.09;100.00;98449.78;4970275;28;20054;-94
2023/07/03 05:56:58;;;;;;;28.13;11.80;;;;;;;24.53;100.00;98466.75;4975707;28;20497;-94
2023/07/03 05:59:24;;;;;;;27.83;11.30;;;;;;;24.68;100.00;98440.91;4990646;28;20070;-95
2023/07/03 06:01:51;;;;;;;28.02;10.90;;;;;;;24.90;100.00;98447.97;4959049;29;20502;-94
2023/07/03 06:04:19;;;;;;;29.57;11.73;;;;;;;25.14;100.00;98466.63;4961393;29;20501;-96
2023/07/03 06:06:45;;;;;;;18.70;9.85;;;;;;;25.07;100.00;98437.38;4962089;29;20556;-96
2023/07/03 06:09:10;;;;;;;26.40;10.70;;;;;;;25.32;100.00;98463.22;4959851;28;20065;-95
2023/07/03 06:11:36;;;;;;;32.08;11.75;;;;;;;25.23;100.00;98461.38;4960272;28;20138;-95
2023/07/03 06:14:04;;;;;;;30.20;11.07;;;;;;;24.95;100.00;98436.66;4960153;29;20045;-96
2023/07/03 06:16:34;;;;;;;28.80;10.68;;;;;;;24.78;100.00;98436.34;4961552;29;20081;-96
2023/07/03 06:19:00;;;;;;;28.70;10.80;;;;;;;24.72;100.00;98446.91;4961082;29;20077;-95
2023/07/03 06:21:26;;;;;;;23.95;10.38;;;;;;;24.38;100.00;98439.91;4962569;29;20055;-94
2023/07/03 06:23:51;;;;;;;28.15;11.50;;;;;;;24.30;100.00;98444.31;4979568;28;20059;-94
2023/07/03 06:26:17;;;;;;;27.90;11.30;;;;;;;24.37;100.00;98446.34;4981416;28;20051;-96
2023/07/03 06:28:43;;;;;;;29.27;11.55;;;;;;;24.12;100.00;98455.81;4982563;28;20050;-96
2023/07/03 06:31:11;;;;;;;25.50;10.73;;;;;;;24.14;100.00;98442.97;4981576;28;20072;-95
2023/07/03 06:33:37;;;;;;;21.90;9.90;;;;;;;24.06;100.00;98442.75;4998057;28;20035;-96
2023/07/03 06:36:03;;;;;;;25.85;11.23;;;;;;;24.15;100.00;98463.69;4982997;28;20050;-95
2023/07/03 06:38:29;;;;;;;25.95;10.40;;;;;;;24.06;100.00;98450.06;4981809;28;20055;-95
2023/07/03 06:40:56;;;;;;;31.60;11.73;;;;;;;24.23;100.00;98464.88;4979777;28;20614;-95
2023/07/03 06:43:22;;;;;;;22.35;10.15;;;;;;;24.44;100.00;98462.09;4979967;28;20054;-94
2023/07/03 06:45:48;;;;;;;27.70;10.68;;;;;;;23.98;100.00;98454.31;4981875;28;20043;-95
2023/07/03 06:48:15;;;;;;;23.75;11.00;;;;;;;24.21;100.00;98451.41;4998771;28;20054;-95
2023/07/03 06:50:41;;;;;;;26.88;10.95;;;;;;;24.64;100.00;98439.47;4981340;28;20047;-96
2023/07/03 06:53:07;;;;;;;27.58;11.68;;;;;;;25.26;100.00;98455.63;4979015;28;20413;-95
2023/07/03 06:55:33;;;;;;;23.70;10.18;;;;;;;25.65;100.00;98450.19;4978733;28;20046;-93
2023/07/03 06:58:00;;;;;;;29.25;11.10;;;;;;;25.57;100.00;98445.47;4980129;28;20043;-96
2023/07/03 07:00:29;;;;;;;30.40;11.60;;;;;;;25.79;100.00;98469.66;4978017;28;20146;-94
2023/07/03 07:02:54;;;;;;;24.58;10.40;;;;;;;25.82;100.00;98450.28;4974249;28;20067;-96
2023/07/03 07:05:22;;;;;;;27.48;10.75;;;;;;;25.99;99.97;98467.78;4960104;28;20086;-94
2023/07/03 07:07:48;;;;;;;26.27;10.55;;;;;;;26.00;99.48;98474.09;4958439;28;20494;-93
2023/07/03 07:10:14;;;;;;;25.67;10.07;;;;;;;25.91;100.00;98447.75;4961524;28;20047;-93
2023/07/03 07:12:39;;;;;;;26.45;9.95;;;;;;;26.22;96.67;98451.97;4957662;29;20075;-95
2023/07/03 07:15:07;;;;;;;23.90;9.93;;;;;;;26.33;94.40;98445.47;4957607;29;20051;-94
2023/07/03 07:17:33;;;;;;;27.58;10.23;;;;;;;26.41;91.57;98447.44;4958782;28;20070;-95
2023/07/03 07:19:59;;;;;;;29.88;11.13;;;;;;;26.47;95.41;98437.81;4959049;29;20051;-95
2023/07/03 07:22:27;;;;;;;26.63;10.40;;;;;;;26.59;94.59;98447.53;4959532;28;20036;-96
2023/07/03 07:24:53;;;;;;;27.40;10.77;;;;;;;26.78;91.90;98447.44;4974984;28;20061;-95
2023/07/03 07:27:19;;;;;;;30.20;11.70;;;;;;;26.72;90.79;98433.53;4957899;29;20118;-95
2023/07/03 07:29:45;;;;;;;20.20;9.93;;;;;;;26.50;92.58;98442.94;4959378;29;20050;-94
2023/07/03 07:32:10;;;;;;;23.20;9.63;;;;;;;26.42;89.75;98451.88;4966676;28;20133;-95
2023/07/03 07:34:36;;;;;;;23.55;9.35;;;;;;;26.35;89.04;98428.94;4993802;28;20118;-95
2023/07/03 07:37:02;;;;;;;24.70;9.80;;;;;;;26.20;91.61;98448.53;4994926;28;20046;-94
2023/07/03 07:39:34;;;;;;;25.00;9.77;;;;;;;26.43;91.88;98443.53;4981678;28;20046;-93
2023/07/03 07:42:00;;;;;;;22.45;9.07;;;;;;;26.69;90.08;98433.84;4972288;28;20047;-92
2023/07/03 07:44:26;;;;;;;23.15;10.43;;;;;;;27.01;88.02;98441.53;4963929;28;20397;-93
2023/07/03 07:46:52;;;;;;;21.35;9.50;;;;;;;26.97;85.31;98446.44;4962588;28;20036;-95
2023/07/03 07:49:18;;;;;;;20.90;9.27;;;;;;;26.98;88.98;98430.97;4969444;28;20053;-94
2023/07/03 07:51:44;;;;;;;25.15;9.73;;;;;;;27.17;85.00;98425.34;4973875;28;20105;-94
2023/07/03 07:54:10;;;;;;;19.30;9.50;;;;;;;27.09;85.81;98414.34;4964603;28;20115;-95
2023/07/03 07:56:37;;;;;;;19.95;9.38;;;;;;;27.09;86.50;98430.72;4960966;28;20513;-95
2023/07/03 07:59:03;;;;;;;23.98;10.02;;;;;;;26.15;88.97;98407.22;4972350;28;20498;-94
2023/07/03 08:01:29;;;;;;;21.17;9.70;;;;;;;26.51;89.94;98423.72;4960121;28;20508;-93
2023/07/03 08:03:55;;;;;;;19.20;9.18;;;;;;;26.97;88.57;98437.41;4961795;28;20054;-94
2023/07/03 08:06:21;;;;;;;25.90;9.13;;;;;;;27.17;87.66;98422.63;4964721;28;20046;-93
2023/07/03 08:08:47;;;;;;;24.38;9.52;;;;;;;27.38;85.29;98424.19;4970443;28;20138;-95
2023/07/03 08:11:14;;;;;;;23.65;9.48;;;;;;;27.73;83.28;98425.19;4966081;28;20053;-95
2023/07/03 08:13:41;;;;;;;20.65;8.88;;;;;;;27.45;82.62;98430.75;4962753;28;20042;-95
2023/07/03 08:16:09;;;;;;;22.00;9.00;;;;;;;27.62;80.61;98423.56;4964557;28;20153;-92
2023/07/03 08:18:35;;;;;;;22.73;9.30;;;;;;;27.81;83.47;98425.25;4956797;29;20043;-94
2023/07/03 08:21:01;;;;;;;19.20;8.77;;;;;;;27.60;82.32;98440.09;4959601;28;20062;-94
2023/07/03 08:23:27;;;;;;;18.73;8.52;;;;;;;27.86;84.71;98445.63;4963863;28;20043;-93
2023/07/03 08:25:54;;;;;;;18.08;9.00;;;;;;;27.43;83.74;98438.22;4961619;28;20512;-95
2023/07/03 08:28:21;;;;;;;21.92;8.70;;;;;;;27.03;83.15;98425.88;4963899;28;20035;-94
2023/07/03 08:30:48;;;;;;;21.38;9.15;;;;;;;26.84;83.79;98451.41;4963447;28;20043;-93
2023/07/03 08:33:14;;;;;;;18.98;8.75;;;;;;;27.14;85.21;98424.78;4966541;28;20047;-94
2023/07/03 08:35:40;;;;;;;20.23;9.15;;;;;;;27.20;84.15;98421.44;4963883;28;20050;-93
2023/07/03 08:38:08;;;;;;;18.63;8.70;;;;;;;27.20;84.76;98441.41;4966974;28;20042;-94
2023/07/03 08:40:34;;;;;;;23.83;9.20;;;;;;;27.60;83.94;98418.25;4962309;28;20508;-91
2023/07/03 08:43:00;;;;;;;19.38;8.68;;;;;;;28.00;82.06;98435.16;4961838;28;20191;-94
2023/07/03 08:45:34;;;;;;;19.30;8.68;;;;;;;28.23;81.21;98446.38;4978324;28;20464;-95
2023/07/03 08:48:05;;;;;;;18.48;8.65;;;;;;;28.50;80.15;98434.44;4974629;28;20166;-94
2023/07/03 08:50:32;;;;;;;19.80;9.20;;;;;;;28.56;77.44;98442.00;4977204;28;21112;-94
2023/07/03 08:53:03;;;;;;;19.13;8.68;;;;;;;28.15;81.22;98432.66;4962806;28;20035;-93
2023/07/03 08:55:34;;;;;;;21.23;9.32;;;;;;;28.17;80.85;98447.03;4967469;28;20054;-94
2023/07/03 08:58:01;;;;;;;20.00;8.75;;;;;;;28.19;80.13;98434.06;4961936;28;20043;-93
2023/07/03 09:00:29;;;;;;;16.58;8.05;;;;;;;28.61;76.71;98446.97;4974662;28;20043;-94
2023/07/03 09:03:01;;;;;;;16.70;8.60;;;;;;;28.21;78.93;98453.88;4958238;28;20105;-93
2023/07/03 09:05:44;;;;;;;18.08;8.23;;;;;;;28.70;76.42;98440.50;4956644;28;20066;-93
2023/07/03 09:08:17;;;;;;;20.70;8.02;;;;;;;28.93;75.01;98438.03;4957688;28;20107;-94
2023/07/03 09:10:47;;;;;;;15.98;7.55;;;;;;;29.32;72.50;98433.84;4958488;28;20071;-96
2023/07/03 09:13:18;;;;;;;19.80;7.60;;;;;;;29.30;73.74;98423.06;4961328;28;20043;-92
2023/07/03 09:15:52;;;;;;;18.35;7.95;;;;;;;29.43;71.03;98444.47;4967939;28;20394;-93
2023/07/03 09:18:22;;;;;;;15.15;7.60;;;;;;;29.21;71.77;98449.59;4960015;28;20039;-92
2023/07/03 09:20:50;;;;;;;21.52;8.10;;;;;;;29.25;73.94;98439.13;4966022;28;20046;-93
2023/07/03 09:23:18;;;;;;;;;;;;;;;29.54;71.59;98452.38;4969919;28;20580;-93
2023/07/03 09:25:47;;;;;;;18.02;7.70;;;;;;;29.37;71.16;98451.50;4982184;28;19937;-93
2023/07/03 09:28:13;;;;;;;16.42;7.40;;;;;;;29.78;69.25;98453.44;4962153;28;20498;-95
2023/07/03 09:30:39;;;;;;;13.90;6.80;;;;;;;29.69;57.83;98450.69;4970613;28;20057;-94
2023/07/03 09:33:07;;;;;;;16.35;7.85;;;;;;;29.99;58.08;98456.47;4959465;28;20497;-90
2023/07/03 09:35:35;;;;;;;12.85;6.32;;;;;;;30.18;53.59;98448.91;4976025;28;20047;-95
2023/07/03 09:38:05;;;;;;;11.13;5.72;;;;;;;30.06;49.57;98453.94;4971639;28;20043;-94
2023/07/03 09:40:35;;;;;;;11.88;5.47;;;;;;;29.48;52.47;98451.16;4959921;28;20047;-93
2023/07/03 09:43:02;;;;;;;15.52;6.75;;;;;;;29.85;51.48;98448.97;4959246;28;20062;-93
2023/07/03 09:45:32;;;;;;;13.15;5.88;;;;;;;30.00;51.00;98446.38;4970543;28;20039;-94
2023/07/03 09:48:00;;;;;;;11.13;5.65;;;;;;;29.59;48.81;98429.94;4986305;28;20049;-93
2023/07/03 09:50:28;;;;;;;12.88;5.65;;;;;;;29.43;51.60;98433.50;4958954;28;20056;-92
2023/07/03 09:52:55;;;;;;;;;;;;;;;29.63;48.61;98443.13;4984128;28;20400;-94
2023/07/03 09:55:23;;;;;;;10.55;6.03;;;;;;;29.51;50.96;98438.16;4982787;28;19926;-93
2023/07/03 09:57:49;;;;;;;12.23;6.60;;;;;;;29.67;51.77;98436.28;4966422;28;20043;-94
2023/07/03 10:00:18;;;;;;;12.13;6.28;;;;;;;30.03;51.07;98444.13;4981370;28;20501;-92
2023/07/03 10:02:44;;;;;;;10.25;6.20;;;;;;;29.66;51.08;98442.75;4962987;28;20059;-93
2023/07/03 10:05:13;;;;;;;10.98;6.43;;;;;;;29.75;53.38;98451.03;4965423;28;20078;-94
2023/07/03 10:07:41;;;;;;;10.63;6.25;;;;;;;29.78;50.65;98435.09;4970515;28;20051;-94
2023/07/03 10:10:10;;;;;;;15.40;6.88;;;;;;;29.74;50.83;98444.69;4967890;28;20485;-93
2023/07/03 10:12:44;;;;;;;11.23;6.43;;;;;;;29.43;51.67;98430.75;4974205;28;20059;-93
2023/07/03 10:15:18;;;;;;;11.63;6.28;;;;;;;29.73;51.32;98433.91;4962747;28;20090;-94
2023/07/03 10:17:50;;;;;;;16.00;6.95;;;;;;;28.99;52.22;98440.06;4968919;28;20042;-92
2023/07/03 10:20:23;;;;;;;11.05;6.15;;;;;;;28.62;53.01;98419.41;4961899;28;20054;-94
2023/07/03 10:22:51;;;;;;;11.13;6.20;;;;;;;28.87;52.14;98447.75;4972599;28;20143;-94
2023/07/03 10:25:23;;;;;;;13.70;7.18;;;;;;;28.57;53.25;98434.63;4969594;28;20043;-93
2023/07/03 10:27:55;;;;;;;19.00;7.53;;;;;;;28.85;53.37;98440.72;4963685;28;20055;-94
2023/07/03 10:30:23;;;;;;;12.80;6.93;;;;;;;28.54;54.37;98432.22;4964562;28;20394;-94
2023/07/03 10:32:53;;;;;;;13.30;6.40;;;;;;;28.57;54.95;98442.84;4966799;28;20075;-94
2023/07/03 10:35:24;;;;;;;11.80;6.60;;;;;;;28.22;57.58;98452.88;4966169;28;20050;-94
2023/07/03 10:37:57;;;;;;;12.77;6.78;;;;;;;28.43;57.35;98441.53;4968904;28;20051;-93
2023/07/03 10:40:30;;;;;;;14.20;6.60;;;;;;;29.02;54.94;98447.13;4955389;28;20043;-93
2023/07/03 10:43:02;;;;;;;13.25;6.50;;;;;;;29.55;52.08;98453.22;4959285;28;20401;-93
2023/07/03 10:45:31;;;;;;;14.48;6.53;;;;;;;29.83;51.20;98442.81;4962101;28;20047;-94
2023/07/03 10:48:02;;;;;;;12.77;6.35;;;;;;;30.22;51.08;98437.44;4967230;28;20072;-94
2023/07/03 10:50:32;;;;;;;10.82;6.85;;;;;;;30.18;50.91;98422.34;4962330;28;20035;-92
2023/07/03 10:53:20;;;;;;;16.20;7.50;;;;;;;30.09;50.73;98431.63;4961299;28;20050;-92
2023/07/03 10:55:50;;;;;;;;;;;;;;;29.79;53.33;98438.69;4958953;28;20075;-94
2023/07/03 10:58:26;;;;;;;14.02;7.40;;;;;;;29.67;53.44;98428.06;4978834;28;19925;-93
2023/07/03 11:00:57;;;;;;;14.43;6.55;;;;;;;29.41;51.22;98408.19;4963795;28;20047;-93
2023/07/03 11:03:33;;;;;;;14.27;6.35;;;;;;;29.63;53.09;98420.34;4970082;28;20051;-93
2023/07/03 11:06:03;;;;;;;12.98;6.20;;;;;;;29.64;53.56;98419.31;4962423;28;20048;-92
2023/07/03 11:08:35;;;;;;;11.75;6.35;;;;;;;30.16;50.30;98423.56;4965984;28;20461;-94
2023/07/03 11:11:13;;;;;;;11.60;5.53;;;;;;;30.53;46.97;98416.63;4971055;28;20039;-93
2023/07/03 11:13:51;;;;;;;10.48;5.45;;;;;;;30.16;47.35;98407.09;4969789;28;20050;-94
2023/07/03 11:16:18;;;;;;;13.93;6.18;;;;;;;29.80;48.74;98415.75;4955065;28;20043;-95
2023/07/03 11:18:55;;;;;;;9.18;6.30;;;;;;;29.71;48.63;98431.31;4953928;28;20052;-93